createdAt,value
2023-11-25T00:00:50.350Z,87.64
2023-11-25T00:03:17.038Z,87.76
2023-11-25T00:05:44.031Z,87.73
2023-11-25T00:08:11.680Z,87.79
2023-11-25T00:10:38.676Z,87.78
2023-11-25T00:13:05.381Z,87.68
2023-11-25T00:15:31.947Z,87.79
2023-11-25T00:17:59.096Z,87.50
2023-11-25T00:20:26.663Z,87.62
2023-11-25T00:22:53.878Z,88.07
2023-11-25T00:25:21.102Z,87.83
2023-11-25T00:27:48.053Z,88.51
2023-11-25T00:30:15.600Z,87.95
2023-11-25T00:32:42.851Z,87.70
2023-11-25T00:35:10.172Z,87.57
2023-11-25T00:37:37.961Z,87.56
2023-11-25T00:40:06.139Z,87.52
2023-11-25T00:42:32.849Z,87.76
2023-11-25T00:44:59.781Z,88.02
2023-11-25T00:47:28.736Z,87.73
2023-11-25T00:49:56.612Z,87.46
2023-11-25T00:52:23.461Z,86.49
2023-11-25T00:54:50.080Z,85.98
2023-11-25T00:57:17.329Z,86.56
2023-11-25T00:59:44.369Z,86.36
2023-11-25T01:02:10.999Z,86.75
2023-11-25T01:04:41.304Z,87.19
2023-11-25T01:07:08.619Z,87.40
2023-11-25T01:09:35.646Z,87.81
2023-11-25T01:12:02.268Z,88.31
2023-11-25T01:14:28.839Z,88.64
2023-11-25T01:16:55.540Z,89.04
2023-11-25T01:19:22.265Z,89.03
2023-11-25T01:21:49.557Z,89.10
2023-11-25T01:24:16.137Z,89.39
2023-11-25T01:26:43.274Z,89.43
2023-11-25T01:29:10.686Z,89.46
2023-11-25T01:31:37.365Z,89.39
2023-11-25T01:34:04.118Z,89.24
2023-11-25T01:36:30.697Z,89.53
2023-11-25T01:38:57.305Z,89.99
2023-11-25T01:41:24.424Z,90.20
2023-11-25T01:43:51.616Z,90.34
2023-11-25T01:46:45.504Z,90.76
2023-11-25T01:49:16.801Z,90.91
2023-11-25T01:51:46.908Z,90.75
2023-11-25T01:54:17.885Z,91.19
2023-11-25T01:56:47.292Z,91.47
2023-11-25T01:59:16.830Z,91.86
2023-11-25T06:32:34.456Z,92.34
2023-11-25T06:35:02.130Z,91.78
2023-11-25T06:37:28.951Z,91.09
2023-11-25T06:39:55.726Z,90.37
2023-11-25T06:42:23.611Z,90.21
2023-11-25T06:44:52.448Z,90.30
2023-11-25T06:47:20.844Z,90.57
2023-11-25T06:49:49.495Z,90.78
2023-11-25T06:52:21.551Z,90.94
2023-11-25T06:54:48.234Z,91.14
2023-11-25T06:57:17.382Z,91.13
2023-11-25T06:59:46.169Z,91.13
2023-11-25T07:02:14.157Z,91.23
2023-11-25T07:04:41.073Z,91.77
2023-11-25T07:07:08.473Z,92.17
2023-11-25T07:09:35.099Z,92.32
2023-11-25T07:12:01.889Z,91.58
2023-11-25T07:14:29.569Z,91.76
2023-11-25T07:16:57.231Z,92.18
2023-11-25T07:19:23.882Z,92.27
2023-11-25T07:21:51.907Z,93.64
2023-11-25T07:24:18.842Z,94.21
2023-11-25T07:26:52.656Z,94.46
2023-11-25T07:29:20.537Z,94.30
2023-11-25T07:31:48.210Z,93.73
2023-11-25T07:34:15.180Z,94.27
2023-11-25T07:36:44.009Z,94.29
2023-11-25T07:39:10.704Z,94.56
2023-11-25T07:41:37.363Z,94.61
2023-11-25T07:44:04.280Z,94.59
2023-11-25T07:46:31.097Z,94.28
2023-11-25T07:48:57.792Z,94.07
2023-11-25T07:51:26.931Z,93.87
2023-11-25T07:53:53.987Z,93.58
2023-11-25T07:56:21.257Z,93.24
2023-11-25T07:58:47.981Z,93.32
2023-11-25T08:01:14.551Z,93.34
2023-11-25T08:03:41.246Z,93.55
2023-11-25T08:06:08.102Z,93.71
2023-11-25T08:08:34.850Z,93.77
2023-11-25T08:11:01.447Z,93.51
2023-11-25T08:13:28.265Z,93.21
2023-11-25T08:15:56.536Z,92.70
2023-11-25T08:18:23.328Z,92.12
2023-11-25T08:20:50.029Z,91.66
2023-11-25T08:23:17.025Z,91.19
2023-11-25T08:25:44.054Z,91.71
2023-11-25T08:28:10.676Z,92.07
2023-11-25T08:30:41.229Z,91.76
2023-11-25T08:33:07.935Z,91.68
2023-11-25T08:35:34.660Z,91.99
2023-11-25T08:38:01.236Z,91.51
2023-11-25T08:40:28.763Z,91.07
2023-11-25T08:42:57.469Z,90.81
2023-11-25T08:45:25.580Z,91.14
2023-11-25T08:47:52.351Z,91.32
2023-11-25T08:50:20.500Z,91.02
2023-11-25T08:52:49.930Z,90.71
2023-11-25T08:55:19.768Z,89.49
2023-11-25T08:57:47.240Z,87.41
2023-11-25T09:00:23.349Z,84.19
2023-11-25T09:02:55.599Z,81.42
2023-11-25T09:05:24.025Z,80.68
2023-11-25T09:07:56.609Z,79.05
2023-11-25T09:10:24.433Z,80.34
2023-11-25T09:12:53.525Z,79.71
2023-11-25T09:15:21.364Z,80.55
2023-11-25T09:17:48.049Z,85.02
2023-11-25T09:20:17.769Z,87.08
2023-11-25T09:22:44.992Z,88.33
2023-11-25T09:25:13.154Z,88.16
2023-11-25T09:27:43.061Z,89.00
2023-11-25T09:30:12.433Z,88.74
2023-11-25T09:32:43.356Z,88.31
2023-11-25T09:35:13.391Z,88.47
2023-11-25T09:37:40.855Z,87.73
2023-11-25T09:40:15.146Z,87.39
2023-11-25T09:42:46.280Z,82.89
2023-11-25T09:45:13.843Z,79.79
2023-11-25T09:47:44.549Z,79.79
2023-11-25T09:50:12.008Z,79.67
2023-11-25T09:52:49.904Z,77.87
2023-11-25T09:55:18.764Z,76.97
2023-11-25T09:57:54.459Z,76.36
2023-11-25T10:00:22.828Z,76.34
2023-11-25T10:02:55.491Z,77.14
2023-11-25T10:05:23.221Z,76.21
2023-11-25T10:07:50.013Z,76.67
2023-11-25T10:10:24.794Z,77.00
2023-11-25T10:12:52.056Z,80.49
2023-11-25T10:15:19.104Z,80.47
2023-11-25T10:17:45.932Z,82.37
2023-11-25T10:20:20.554Z,85.00
2023-11-25T10:22:49.254Z,87.62
2023-11-25T10:25:19.841Z,88.90
2023-11-25T10:27:47.823Z,90.15
2023-11-25T10:30:16.073Z,89.82
2023-11-25T10:32:43.663Z,90.48
2023-11-25T10:35:10.959Z,90.51
2023-11-25T10:37:41.265Z,91.65
2023-11-25T10:40:12.085Z,91.64
2023-11-25T10:42:46.748Z,89.57
2023-11-25T10:45:17.513Z,88.71
2023-11-25T10:47:44.884Z,88.41
2023-11-25T10:50:12.490Z,87.95
2023-11-25T10:52:44.197Z,88.61
2023-11-25T10:55:11.056Z,88.77
2023-11-25T10:57:38.621Z,87.72
2023-11-25T11:00:12.189Z,86.78
2023-11-25T11:02:55.491Z,84.74
2023-11-25T11:05:35.541Z,82.62
2023-11-25T11:08:07.363Z,83.39
2023-11-25T11:11:01.410Z,86.09
2023-11-25T11:13:34.717Z,83.42
2023-11-25T11:16:08.466Z,80.18
2023-11-25T11:18:37.846Z,77.83
2023-11-25T11:21:07.552Z,78.37
2023-11-25T11:23:38.588Z,79.74
2023-11-25T11:26:19.429Z,77.26
2023-11-25T11:29:20.322Z,82.35
2023-11-25T11:31:59.041Z,83.94
2023-11-25T11:34:33.248Z,84.19
2023-11-25T11:37:01.291Z,83.65
2023-11-25T11:39:52.377Z,84.40
2023-11-25T11:42:28.112Z,83.24
2023-11-25T11:45:13.152Z,82.86
2023-11-25T11:47:45.631Z,82.67
2023-11-25T11:50:17.442Z,81.46
2023-11-25T11:52:48.817Z,80.84
2023-11-25T11:55:41.197Z,77.84
2023-11-25T11:58:13.004Z,75.71
2023-11-25T12:01:03.067Z,74.68
2023-11-25T12:03:31.471Z,74.10
2023-11-25T12:05:58.239Z,77.35
2023-11-25T12:08:25.850Z,79.90
2023-11-25T12:10:53.551Z,79.59
2023-11-25T12:13:30.310Z,76.21
2023-11-25T12:16:01.819Z,78.44
2023-11-25T12:18:33.275Z,81.07
2023-11-25T12:21:02.549Z,82.96
2023-11-25T12:23:41.134Z,82.59
2023-11-25T12:26:21.369Z,82.08
2023-11-25T12:28:47.955Z,84.21
2023-11-25T12:31:14.622Z,84.58
2023-11-25T12:33:41.276Z,84.12
2023-11-25T12:36:08.915Z,79.23
2023-11-25T12:38:38.271Z,78.80
2023-11-25T12:41:12.638Z,81.49
2023-11-25T12:44:11.817Z,83.57
2023-11-25T12:46:39.778Z,79.91
2023-11-25T12:49:25.993Z,77.29
2023-11-25T12:51:54.098Z,75.09
2023-11-25T12:54:21.394Z,76.19
2023-11-25T12:56:53.197Z,82.07
2023-11-25T12:59:31.455Z,86.43
2023-11-25T13:02:09.555Z,87.84
2023-11-25T13:04:43.558Z,89.19
2023-11-25T13:07:10.409Z,89.02
2023-11-25T13:09:40.515Z,89.32
2023-11-25T13:12:07.917Z,90.31
2023-11-25T13:14:35.221Z,90.26
2023-11-25T13:17:02.906Z,89.88
2023-11-25T13:19:29.620Z,89.65
2023-11-25T13:21:56.177Z,88.53
2023-11-25T13:24:23.658Z,88.20
2023-11-25T13:26:50.462Z,87.95
2023-11-25T13:29:17.337Z,88.13
2023-11-25T13:31:44.689Z,88.56
2023-11-25T13:34:13.478Z,88.43
2023-11-25T13:36:41.596Z,88.60
2023-11-25T13:39:08.388Z,89.03
2023-11-25T13:41:35.044Z,89.29
2023-11-25T13:44:01.737Z,89.63
2023-11-25T13:46:28.398Z,89.45
2023-11-25T13:48:55.470Z,89.17
2023-11-25T13:51:22.868Z,89.11
2023-11-25T13:53:49.598Z,88.81
2023-11-25T13:56:16.224Z,88.71
2023-11-25T13:58:42.855Z,89.00
2023-11-25T14:01:09.999Z,88.80
2023-11-25T14:03:37.242Z,88.25
2023-11-25T14:06:04.467Z,87.39
2023-11-25T14:08:31.029Z,87.26
2023-11-25T14:10:57.720Z,86.87
2023-11-25T14:13:24.881Z,86.67
2023-11-25T14:15:51.720Z,86.16
2023-11-25T14:18:18.442Z,86.39
2023-11-25T14:20:45.187Z,86.26
2023-11-25T14:23:12.052Z,86.75
2023-11-25T14:25:39.005Z,87.03
2023-11-25T14:28:06.463Z,87.89
2023-11-25T14:30:34.802Z,87.89
2023-11-25T14:33:04.818Z,87.80
2023-11-25T14:35:35.480Z,87.27
2023-11-25T14:38:05.064Z,86.89
2023-11-25T14:40:35.293Z,86.99
2023-11-25T14:43:02.139Z,88.05
2023-11-25T14:45:28.910Z,88.53
2023-11-25T14:47:55.822Z,88.93
2023-11-25T14:50:22.531Z,88.90
2023-11-25T14:52:49.306Z,88.99
2023-11-25T14:55:15.990Z,89.04
2023-11-25T14:57:43.977Z,89.27
2023-11-25T15:00:12.186Z,87.96
2023-11-25T15:02:38.973Z,88.36
2023-11-25T15:05:06.139Z,89.54
2023-11-25T15:07:33.475Z,90.58
2023-11-25T15:10:00.234Z,91.76
2023-11-25T15:12:26.831Z,92.14
2023-11-25T15:14:55.731Z,92.36
2023-11-25T15:17:24.033Z,90.57
2023-11-25T15:19:50.849Z,90.59
2023-11-25T15:22:17.538Z,90.85
2023-11-25T15:24:44.234Z,90.91
2023-11-25T15:27:13.425Z,90.69
2023-11-25T15:29:40.119Z,90.54
2023-11-25T15:32:07.611Z,90.35
2023-11-25T15:34:34.787Z,89.52
2023-11-25T15:37:01.368Z,88.44
2023-11-25T15:39:28.561Z,87.15
2023-11-25T15:41:55.430Z,86.98
2023-11-25T15:44:22.261Z,86.09
2023-11-25T15:46:49.231Z,86.82
2023-11-25T15:49:17.017Z,87.15
2023-11-25T15:51:45.289Z,87.68
2023-11-25T15:54:12.300Z,87.65
2023-11-25T15:56:39.495Z,87.46
2023-11-25T15:59:07.775Z,87.65
2023-11-25T16:01:34.920Z,87.39
2023-11-25T16:06:28.781Z,87.33
2023-11-25T16:08:55.455Z,87.51
2023-11-25T16:11:23.170Z,87.27
2023-11-25T16:13:49.959Z,87.22
2023-11-25T16:16:16.679Z,87.70
2023-11-25T16:18:43.682Z,87.58
2023-11-25T16:21:10.430Z,87.66
2023-11-25T16:23:40.147Z,87.87
2023-11-25T16:26:11.517Z,87.81
2023-11-25T16:28:38.226Z,87.37
2023-11-25T16:31:07.279Z,87.74
2023-11-25T16:33:37.432Z,87.93
2023-11-25T16:36:04.253Z,88.00
2023-11-25T16:38:33.673Z,87.51
2023-11-25T16:41:00.453Z,88.22
2023-11-25T16:43:27.102Z,88.28
2023-11-25T16:45:53.744Z,88.59
2023-11-25T16:48:25.277Z,88.87
2023-11-25T16:50:53.940Z,89.10
2023-11-25T16:53:20.674Z,89.33
2023-11-25T16:55:47.408Z,89.66
2023-11-25T16:58:14.145Z,89.91
2023-11-25T17:00:40.688Z,90.18
2023-11-25T17:03:07.836Z,90.47
2023-11-25T17:05:34.557Z,91.18
2023-11-25T17:08:01.255Z,91.40
2023-11-25T17:10:31.774Z,91.79
2023-11-25T17:13:02.663Z,91.87
2023-11-25T17:15:29.256Z,91.96
2023-11-25T17:17:55.944Z,92.03
2023-11-25T17:20:22.808Z,91.80
2023-11-25T17:22:50.260Z,92.02
2023-11-25T17:25:17.019Z,92.18
2023-11-25T17:27:43.620Z,91.92
2023-11-25T17:30:10.408Z,91.83
2023-11-25T17:32:37.102Z,91.94
2023-11-25T17:35:05.180Z,91.85
2023-11-25T17:37:31.859Z,91.63
2023-11-25T17:39:59.422Z,91.18
2023-11-25T17:42:25.969Z,91.36
2023-11-25T17:44:52.488Z,91.37
2023-11-25T17:47:19.194Z,91.56
2023-11-25T17:49:47.510Z,91.74
2023-11-25T17:52:14.860Z,92.23
2023-11-25T17:54:41.527Z,92.45
2023-11-25T17:57:09.808Z,92.41
2023-11-25T17:59:36.628Z,92.50
2023-11-25T18:02:03.525Z,92.70
2023-11-25T18:04:30.143Z,92.97
2023-11-25T18:06:56.772Z,92.79
2023-11-25T18:09:25.158Z,92.74
2023-11-25T18:11:51.797Z,92.81
2023-11-25T18:14:18.654Z,93.10
2023-11-25T18:16:46.524Z,93.25
2023-11-25T18:19:15.239Z,93.23
2023-11-25T18:21:42.013Z,93.30
2023-11-25T18:24:10.892Z,92.81
2023-11-25T18:26:37.659Z,92.67
2023-11-25T18:29:04.340Z,92.55
2023-11-25T18:31:30.942Z,92.19
2023-11-25T18:33:58.236Z,92.24
2023-11-25T18:36:25.083Z,92.54
2023-11-25T18:38:51.680Z,91.86
2023-11-25T18:41:18.572Z,91.88
2023-11-25T18:43:45.622Z,91.93
2023-11-25T18:46:13.407Z,92.01
2023-11-25T18:48:40.148Z,91.89
2023-11-25T18:51:08.543Z,92.00
2023-11-25T18:53:36.385Z,92.23
2023-11-25T18:56:03.239Z,91.93
2023-11-25T18:58:32.826Z,92.05
2023-11-25T19:01:00.139Z,92.36
2023-11-25T19:03:26.864Z,92.36
2023-11-25T19:05:53.608Z,92.33
2023-11-25T19:08:20.262Z,92.08
2023-11-25T19:10:46.911Z,92.48
2023-11-25T19:13:13.548Z,92.36
2023-11-25T19:15:40.117Z,92.16
2023-11-25T19:18:09.938Z,92.21
2023-11-25T19:20:36.629Z,92.36
2023-11-25T19:23:03.280Z,92.49
2023-11-25T19:25:29.938Z,92.46
2023-11-25T19:27:56.539Z,92.64
2023-11-25T19:30:23.673Z,92.77
2023-11-25T19:32:50.414Z,92.73
2023-11-25T19:35:17.474Z,93.06
2023-11-25T19:37:44.196Z,93.12
2023-11-25T19:40:11.907Z,93.49
2023-11-25T19:42:38.504Z,93.33
2023-11-25T19:45:05.563Z,93.05
2023-11-25T19:47:32.175Z,92.72
2023-11-25T19:49:59.013Z,92.10
2023-11-25T19:52:25.668Z,92.02
2023-11-25T19:54:52.337Z,91.52
2023-11-25T19:57:19.308Z,91.38
2023-11-25T19:59:46.459Z,91.36
2023-11-25T20:02:13.195Z,91.24
2023-11-25T20:04:40.314Z,91.23
2023-11-25T20:07:07.027Z,91.42
2023-11-25T20:09:33.571Z,91.41
2023-11-25T20:12:00.529Z,91.44
2023-11-25T20:14:28.713Z,91.64
2023-11-25T20:16:58.193Z,91.54
2023-11-25T20:19:26.167Z,91.52
2023-11-25T20:21:52.768Z,91.36
2023-11-25T20:24:19.373Z,91.64
2023-11-25T20:26:45.967Z,91.59
2023-11-25T20:29:12.594Z,91.78
2023-11-25T20:31:41.086Z,91.93
2023-11-25T20:34:08.195Z,91.78
2023-11-25T20:36:34.946Z,91.92
2023-11-25T20:39:01.658Z,91.85
2023-11-25T20:41:28.247Z,91.96
2023-11-25T20:43:54.977Z,91.71
2023-11-25T20:46:21.892Z,91.83
2023-11-25T20:48:48.776Z,92.04
2023-11-25T20:51:20.892Z,92.37
2023-11-25T20:53:48.551Z,92.26
2023-11-25T20:56:16.470Z,92.22
2023-11-25T20:58:43.479Z,92.53
2023-11-25T21:01:11.314Z,92.81
2023-11-25T21:03:38.111Z,92.64
2023-11-25T21:06:06.594Z,92.88
2023-11-25T21:08:34.278Z,92.78
2023-11-25T21:11:01.176Z,92.65
2023-11-25T21:13:27.835Z,92.56
2023-11-25T21:15:54.584Z,92.66
2023-11-25T21:18:22.372Z,92.82
2023-11-25T21:20:48.958Z,92.71
2023-11-25T21:23:15.630Z,92.86
2023-11-25T21:25:42.293Z,93.09
2023-11-25T21:28:09.616Z,92.99
2023-11-25T21:30:36.423Z,93.08
2023-11-25T21:33:03.236Z,93.02
2023-11-25T21:35:29.879Z,92.93
2023-11-25T21:37:56.492Z,93.23
2023-11-25T21:40:24.065Z,93.66
2023-11-25T21:42:51.390Z,93.86
2023-11-25T21:45:19.343Z,93.81
2023-11-25T21:47:47.001Z,94.27
2023-11-25T21:50:13.982Z,94.46
2023-11-25T21:52:40.582Z,94.74
2023-11-25T21:55:07.734Z,94.82
2023-11-25T21:57:35.218Z,94.82
2023-11-25T22:00:02.241Z,94.72
2023-11-25T22:02:29.132Z,94.81
2023-11-25T22:04:56.010Z,95.03
2023-11-25T22:07:23.087Z,95.09
2023-11-25T22:09:52.476Z,95.06
2023-11-25T22:12:19.329Z,95.03
2023-11-25T22:14:45.900Z,95.12
2023-11-25T22:17:12.625Z,94.96
2023-11-25T22:19:39.391Z,95.19
2023-11-25T22:22:07.328Z,95.23
2023-11-25T22:24:33.982Z,95.40
2023-11-25T22:27:20.568Z,95.12
2023-11-25T22:29:47.133Z,95.21
2023-11-25T22:32:14.158Z,95.28
2023-11-25T22:34:41.755Z,95.32
2023-11-25T22:37:08.529Z,94.83
2023-11-25T22:39:36.769Z,95.09
2023-11-25T22:42:03.967Z,95.21
2023-11-25T22:44:30.532Z,94.98
2023-11-25T22:46:57.487Z,95.12
2023-11-25T22:49:24.099Z,95.07
2023-11-25T22:51:50.705Z,95.23
2023-11-25T22:54:18.549Z,95.39
2023-11-25T22:56:45.192Z,95.22
2023-11-25T22:59:14.355Z,95.03
2023-11-25T23:01:42.297Z,94.98
2023-11-25T23:04:09.067Z,95.14
2023-11-25T23:06:41.746Z,95.08
2023-11-25T23:09:08.434Z,95.02
2023-11-25T23:11:35.785Z,94.99
2023-11-25T23:14:04.911Z,94.88
2023-11-25T23:16:31.787Z,95.13
2023-11-25T23:19:00.123Z,94.93
2023-11-25T23:21:28.084Z,95.17
2023-11-25T23:23:55.546Z,94.83
2023-11-25T23:26:22.490Z,94.70
2023-11-25T23:28:49.702Z,94.69
2023-11-25T23:31:16.468Z,94.52
2023-11-25T23:33:43.045Z,94.57
2023-11-25T23:36:10.681Z,94.56
2023-11-25T23:38:38.339Z,94.45
2023-11-25T23:41:05.149Z,94.40
2023-11-25T23:43:31.705Z,94.54
2023-11-25T23:45:58.571Z,94.80
2023-11-25T23:48:25.183Z,95.08
2023-11-25T23:50:52.218Z,95.05
2023-11-25T23:53:18.872Z,95.21
2023-11-25T23:55:45.554Z,95.30
2023-11-25T23:58:12.401Z,95.27
